マニラ/ニノイ・アキノ の空港の天気 - METARとTAF

ニノイ・アキノ国際空港 ( RPLL / MNL ) - フィリピン マニラ
飛行場実況気象(Metar)
観測時間01/26 04:00 PHT (01/25 20:00 UTC)
風向・風速東北東 2m/s
視程10km以上
天気現象
少しの雲 雲底高度 760m
気温24℃
湿度94%
気圧1010hPa
METARRPLL 252000Z 07003KT 9999 FEW025 24/23 Q1010 NOSIG RMK A2983
過去の天気等 Google飛行場航空写真 Wunderground天気予報

過去48時間のMETAR

飛行場予報(TAF)
発表時間: 1/26 01:00 PHT (1/25 17:00 UTC)
予報対象時間: 26日2時 PHT ~ 27日8時 PHT
風向・風速東南東 3m/s
視程10km以上
少しの雲 雲底高度 700m
全天の4割程度の雲 雲底高度 3050m
26日2時 PHT ~ 26日8時 PHT に一時的に
風向・風速不定 1m/s
視程8000m
天気現象弱いしゅう雨
全天の4割程度の雲 雲底高度 700m
全天の8割程度の雲 雲底高度 3050m
26日14時 PHT ~ 26日20時 PHT に一時的に
天気現象弱いしゅう雨
全天の4割程度の雲 雲底高度 700m
全天の8割程度の雲 雲底高度 3050m
TAF RPLL 251700Z 2518/2624 12006KT 9999 FEW023 SCT100 TX31/2605Z TN25/2521Z
TEMPO 2518/2524 VRB02KT 8000 -SHRA SCT023 BKN100
TEMPO 2606/2612 -SHRA SCT023 BKN100